sensor_id;sensor_type;location;lat;lon;timestamp;P1;durP1;ratioP1;P2;durP2;ratioP2
17812;SDS011;9030;50.792;8.320;2022-08-01T00:01:23;8.85;;;6.32;;
17812;SDS011;9030;50.792;8.320;2022-08-01T00:03:50;11.70;;;6.78;;
17812;SDS011;9030;50.792;8.320;2022-08-01T00:06:18;13.50;;;8.48;;
17812;SDS011;9030;50.792;8.320;2022-08-01T00:08:45;12.15;;;8.18;;
17812;SDS011;9030;50.792;8.320;2022-08-01T00:11:11;11.38;;;8.45;;
17812;SDS011;9030;50.792;8.320;2022-08-01T00:13:38;12.63;;;8.05;;
17812;SDS011;9030;50.792;8.320;2022-08-01T00:16:05;15.60;;;9.10;;
17812;SDS011;9030;50.792;8.320;2022-08-01T00:18:32;11.10;;;8.18;;
17812;SDS011;9030;50.792;8.320;2022-08-01T00:20:59;14.07;;;8.85;;
17812;SDS011;9030;50.792;8.320;2022-08-01T00:23:27;11.98;;;9.35;;
17812;SDS011;9030;50.792;8.320;2022-08-01T00:25:54;12.02;;;7.60;;
17812;SDS011;9030;50.792;8.320;2022-08-01T00:28:21;11.10;;;7.75;;
17812;SDS011;9030;50.792;8.320;2022-08-01T00:30:47;11.65;;;9.20;;
17812;SDS011;9030;50.792;8.320;2022-08-01T00:33:14;11.45;;;8.23;;
17812;SDS011;9030;50.792;8.320;2022-08-01T00:35:41;11.90;;;6.97;;
17812;SDS011;9030;50.792;8.320;2022-08-01T00:38:07;13.27;;;8.32;;
17812;SDS011;9030;50.792;8.320;2022-08-01T00:40:35;12.60;;;8.55;;
17812;SDS011;9030;50.792;8.320;2022-08-01T00:43:02;13.20;;;8.20;;
17812;SDS011;9030;50.792;8.320;2022-08-01T00:45:29;13.57;;;9.85;;
17812;SDS011;9030;50.792;8.320;2022-08-01T00:47:56;11.48;;;9.40;;
17812;SDS011;9030;50.792;8.320;2022-08-01T00:50:22;15.52;;;13.60;;
17812;SDS011;9030;50.792;8.320;2022-08-01T00:52:49;17.98;;;16.27;;
17812;SDS011;9030;50.792;8.320;2022-08-01T00:55:17;16.08;;;14.40;;
17812;SDS011;9030;50.792;8.320;2022-08-01T00:57:47;14.60;;;13.10;;
17812;SDS011;9030;50.792;8.320;2022-08-01T01:00:14;18.85;;;17.02;;
17812;SDS011;9030;50.792;8.320;2022-08-01T01:02:41;17.85;;;16.17;;
17812;SDS011;9030;50.792;8.320;2022-08-01T01:05:09;16.30;;;14.70;;
17812;SDS011;9030;50.792;8.320;2022-08-01T01:07:38;19.33;;;17.38;;
17812;SDS011;9030;50.792;8.320;2022-08-01T01:10:15;19.83;;;18.00;;
17812;SDS011;9030;50.792;8.320;2022-08-01T01:12:44;18.15;;;16.25;;
17812;SDS011;9030;50.792;8.320;2022-08-01T01:15:18;20.42;;;17.73;;
17812;SDS011;9030;50.792;8.320;2022-08-01T01:17:51;16.50;;;14.85;;
17812;SDS011;9030;50.792;8.320;2022-08-01T01:20:27;18.10;;;16.35;;
17812;SDS011;9030;50.792;8.320;2022-08-01T01:23:03;18.23;;;16.35;;
17812;SDS011;9030;50.792;8.320;2022-08-01T01:25:46;18.88;;;16.88;;
17812;SDS011;9030;50.792;8.320;2022-08-01T01:28:29;17.85;;;16.05;;
17812;SDS011;9030;50.792;8.320;2022-08-01T01:31:01;19.20;;;16.23;;
17812;SDS011;9030;50.792;8.320;2022-08-01T01:33:32;16.90;;;13.25;;
17812;SDS011;9030;50.792;8.320;2022-08-01T01:36:01;16.35;;;13.77;;
17812;SDS011;9030;50.792;8.320;2022-08-01T01:38:32;17.63;;;15.82;;
17812;SDS011;9030;50.792;8.320;2022-08-01T01:41:02;15.18;;;12.02;;
17812;SDS011;9030;50.792;8.320;2022-08-01T01:43:31;16.40;;;14.60;;
17812;SDS011;9030;50.792;8.320;2022-08-01T01:45:59;19.45;;;17.20;;
17812;SDS011;9030;50.792;8.320;2022-08-01T01:48:28;17.58;;;15.77;;
17812;SDS011;9030;50.792;8.320;2022-08-01T01:50:55;17.13;;;15.35;;
17812;SDS011;9030;50.792;8.320;2022-08-01T01:53:23;20.38;;;17.63;;
17812;SDS011;9030;50.792;8.320;2022-08-01T01:55:53;19.27;;;17.27;;
17812;SDS011;9030;50.792;8.320;2022-08-01T01:58:23;17.80;;;16.10;;
17812;SDS011;9030;50.792;8.320;2022-08-01T02:00:52;21.95;;;19.45;;
17812;SDS011;9030;50.792;8.320;2022-08-01T02:03:22;21.83;;;19.60;;
17812;SDS011;9030;50.792;8.320;2022-08-01T02:05:51;19.63;;;17.52;;
17812;SDS011;9030;50.792;8.320;2022-08-01T02:08:20;19.35;;;17.35;;
17812;SDS011;9030;50.792;8.320;2022-08-01T02:10:48;19.80;;;15.00;;
17812;SDS011;9030;50.792;8.320;2022-08-01T02:13:31;22.73;;;18.27;;
17812;SDS011;9030;50.792;8.320;2022-08-01T02:16:00;21.67;;;19.60;;
17812;SDS011;9030;50.792;8.320;2022-08-01T02:18:29;20.48;;;18.20;;
17812;SDS011;9030;50.792;8.320;2022-08-01T02:20:56;19.83;;;16.73;;
17812;SDS011;9030;50.792;8.320;2022-08-01T02:23:25;20.23;;;16.45;;
17812;SDS011;9030;50.792;8.320;2022-08-01T02:25:57;20.13;;;18.13;;
17812;SDS011;9030;50.792;8.320;2022-08-01T02:28:28;18.52;;;16.63;;
17812;SDS011;9030;50.792;8.320;2022-08-01T02:30:59;17.70;;;16.10;;
17812;SDS011;9030;50.792;8.320;2022-08-01T02:33:37;18.95;;;16.92;;
17812;SDS011;9030;50.792;8.320;2022-08-01T02:36:07;18.70;;;16.85;;
17812;SDS011;9030;50.792;8.320;2022-08-01T02:38:36;16.63;;;14.93;;
17812;SDS011;9030;50.792;8.320;2022-08-01T02:41:10;15.57;;;13.90;;
17812;SDS011;9030;50.792;8.320;2022-08-01T02:43:40;16.90;;;14.13;;
17812;SDS011;9030;50.792;8.320;2022-08-01T02:46:12;16.92;;;12.45;;
17812;SDS011;9030;50.792;8.320;2022-08-01T02:48:47;14.50;;;13.00;;
17812;SDS011;9030;50.792;8.320;2022-08-01T02:51:16;16.60;;;14.88;;
17812;SDS011;9030;50.792;8.320;2022-08-01T02:53:46;15.45;;;13.23;;
17812;SDS011;9030;50.792;8.320;2022-08-01T02:56:14;14.10;;;11.77;;
17812;SDS011;9030;50.792;8.320;2022-08-01T02:58:43;17.05;;;14.18;;
17812;SDS011;9030;50.792;8.320;2022-08-01T03:01:11;13.35;;;11.02;;
17812;SDS011;9030;50.792;8.320;2022-08-01T03:03:41;15.32;;;12.95;;
17812;SDS011;9030;50.792;8.320;2022-08-01T03:06:10;16.90;;;14.77;;
17812;SDS011;9030;50.792;8.320;2022-08-01T03:08:38;13.23;;;11.93;;
17812;SDS011;9030;50.792;8.320;2022-08-01T03:11:05;15.77;;;14.20;;
17812;SDS011;9030;50.792;8.320;2022-08-01T03:13:34;15.68;;;13.57;;
17812;SDS011;9030;50.792;8.320;2022-08-01T03:16:02;13.40;;;11.98;;
17812;SDS011;9030;50.792;8.320;2022-08-01T03:18:31;12.02;;;9.70;;
17812;SDS011;9030;50.792;8.320;2022-08-01T03:20:59;14.43;;;12.85;;
17812;SDS011;9030;50.792;8.320;2022-08-01T03:23:28;13.65;;;12.35;;
17812;SDS011;9030;50.792;8.320;2022-08-01T03:25:57;12.85;;;10.02;;
17812;SDS011;9030;50.792;8.320;2022-08-01T03:28:26;11.85;;;10.55;;
17812;SDS011;9030;50.792;8.320;2022-08-01T03:30:55;12.80;;;11.50;;
17812;SDS011;9030;50.792;8.320;2022-08-01T03:33:23;18.30;;;13.65;;
17812;SDS011;9030;50.792;8.320;2022-08-01T03:35:52;11.82;;;10.10;;
17812;SDS011;9030;50.792;8.320;2022-08-01T03:38:21;13.48;;;10.25;;
17812;SDS011;9030;50.792;8.320;2022-08-01T03:40:51;10.98;;;9.88;;
17812;SDS011;9030;50.792;8.320;2022-08-01T03:43:22;12.15;;;10.85;;
17812;SDS011;9030;50.792;8.320;2022-08-01T03:45:52;12.52;;;10.50;;
17812;SDS011;9030;50.792;8.320;2022-08-01T03:48:22;11.90;;;10.70;;
17812;SDS011;9030;50.792;8.320;2022-08-01T03:50:54;13.13;;;11.60;;
17812;SDS011;9030;50.792;8.320;2022-08-01T03:53:23;11.63;;;9.98;;
17812;SDS011;9030;50.792;8.320;2022-08-01T03:55:56;10.38;;;9.27;;
17812;SDS011;9030;50.792;8.320;2022-08-01T03:58:24;13.95;;;10.60;;
17812;SDS011;9030;50.792;8.320;2022-08-01T04:00:51;11.52;;;10.00;;
17812;SDS011;9030;50.792;8.320;2022-08-01T04:03:19;15.70;;;14.13;;
17812;SDS011;9030;50.792;8.320;2022-08-01T04:05:46;11.93;;;10.05;;
17812;SDS011;9030;50.792;8.320;2022-08-01T04:08:13;18.30;;;14.10;;
17812;SDS011;9030;50.792;8.320;2022-08-01T04:10:39;13.73;;;12.32;;
17812;SDS011;9030;50.792;8.320;2022-08-01T04:13:08;11.55;;;10.18;;
17812;SDS011;9030;50.792;8.320;2022-08-01T04:15:34;15.32;;;13.20;;
17812;SDS011;9030;50.792;8.320;2022-08-01T04:18:01;15.13;;;12.13;;
17812;SDS011;9030;50.792;8.320;2022-08-01T04:20:28;12.93;;;11.52;;
17812;SDS011;9030;50.792;8.320;2022-08-01T04:22:55;15.43;;;12.82;;
17812;SDS011;9030;50.792;8.320;2022-08-01T04:25:23;16.67;;;14.88;;
17812;SDS011;9030;50.792;8.320;2022-08-01T04:27:54;15.68;;;12.88;;
17812;SDS011;9030;50.792;8.320;2022-08-01T04:30:25;19.13;;;15.27;;
17812;SDS011;9030;50.792;8.320;2022-08-01T04:32:55;14.32;;;12.93;;
17812;SDS011;9030;50.792;8.320;2022-08-01T04:35:25;16.15;;;13.48;;
17812;SDS011;9030;50.792;8.320;2022-08-01T04:37:53;16.17;;;14.07;;
17812;SDS011;9030;50.792;8.320;2022-08-01T04:40:21;16.42;;;13.77;;
17812;SDS011;9030;50.792;8.320;2022-08-01T04:42:48;15.88;;;12.05;;
17812;SDS011;9030;50.792;8.320;2022-08-01T04:45:16;15.82;;;14.18;;
17812;SDS011;9030;50.792;8.320;2022-08-01T04:47:44;15.45;;;13.65;;
17812;SDS011;9030;50.792;8.320;2022-08-01T04:50:12;17.13;;;14.30;;
17812;SDS011;9030;50.792;8.320;2022-08-01T04:52:39;15.88;;;14.20;;
17812;SDS011;9030;50.792;8.320;2022-08-01T04:55:07;17.45;;;15.60;;
17812;SDS011;9030;50.792;8.320;2022-08-01T04:57:36;15.82;;;14.23;;
17812;SDS011;9030;50.792;8.320;2022-08-01T05:00:07;16.02;;;14.38;;
17812;SDS011;9030;50.792;8.320;2022-08-01T05:02:35;14.68;;;11.80;;
17812;SDS011;9030;50.792;8.320;2022-08-01T05:05:04;17.30;;;14.88;;
17812;SDS011;9030;50.792;8.320;2022-08-01T05:07:32;15.63;;;14.02;;
17812;SDS011;9030;50.792;8.320;2022-08-01T05:10:01;18.55;;;16.63;;
17812;SDS011;9030;50.792;8.320;2022-08-01T05:12:28;19.73;;;17.83;;
17812;SDS011;9030;50.792;8.320;2022-08-01T05:14:56;18.67;;;16.70;;
17812;SDS011;9030;50.792;8.320;2022-08-01T05:17:23;16.90;;;14.00;;
17812;SDS011;9030;50.792;8.320;2022-08-01T05:19:50;18.52;;;16.40;;
17812;SDS011;9030;50.792;8.320;2022-08-01T05:22:18;18.35;;;16.13;;
17812;SDS011;9030;50.792;8.320;2022-08-01T05:24:44;16.02;;;14.30;;
17812;SDS011;9030;50.792;8.320;2022-08-01T05:27:12;17.75;;;15.95;;
17812;SDS011;9030;50.792;8.320;2022-08-01T05:29:38;18.27;;;16.30;;
17812;SDS011;9030;50.792;8.320;2022-08-01T05:32:06;22.50;;;20.30;;
17812;SDS011;9030;50.792;8.320;2022-08-01T05:34:32;19.27;;;17.23;;
17812;SDS011;9030;50.792;8.320;2022-08-01T05:36:59;20.13;;;18.08;;
17812;SDS011;9030;50.792;8.320;2022-08-01T05:39:27;18.73;;;16.77;;
17812;SDS011;9030;50.792;8.320;2022-08-01T05:41:54;19.45;;;17.50;;
17812;SDS011;9030;50.792;8.320;2022-08-01T05:44:22;19.38;;;17.40;;
17812;SDS011;9030;50.792;8.320;2022-08-01T05:46:48;18.80;;;16.83;;
17812;SDS011;9030;50.792;8.320;2022-08-01T05:49:15;18.00;;;16.20;;
17812;SDS011;9030;50.792;8.320;2022-08-01T05:51:42;19.88;;;17.92;;
17812;SDS011;9030;50.792;8.320;2022-08-01T05:54:08;20.48;;;18.33;;
17812;SDS011;9030;50.792;8.320;2022-08-01T05:56:36;19.70;;;17.77;;
17812;SDS011;9030;50.792;8.320;2022-08-01T05:59:03;21.02;;;17.00;;
17812;SDS011;9030;50.792;8.320;2022-08-01T06:01:30;19.10;;;17.17;;
17812;SDS011;9030;50.792;8.320;2022-08-01T06:03:57;20.77;;;18.75;;
17812;SDS011;9030;50.792;8.320;2022-08-01T06:06:24;19.92;;;18.08;;
17812;SDS011;9030;50.792;8.320;2022-08-01T06:08:51;18.23;;;16.10;;
17812;SDS011;9030;50.792;8.320;2022-08-01T06:11:18;18.00;;;16.27;;
17812;SDS011;9030;50.792;8.320;2022-08-01T06:13:46;21.90;;;17.92;;
17812;SDS011;9030;50.792;8.320;2022-08-01T06:16:12;19.70;;;16.38;;
17812;SDS011;9030;50.792;8.320;2022-08-01T06:18:39;18.15;;;16.23;;
17812;SDS011;9030;50.792;8.320;2022-08-01T06:21:06;16.17;;;14.10;;
17812;SDS011;9030;50.792;8.320;2022-08-01T06:23:33;18.90;;;16.90;;
17812;SDS011;9030;50.792;8.320;2022-08-01T06:25:59;19.92;;;17.73;;
17812;SDS011;9030;50.792;8.320;2022-08-01T06:28:26;20.02;;;15.88;;
17812;SDS011;9030;50.792;8.320;2022-08-01T06:30:54;17.33;;;15.52;;
17812;SDS011;9030;50.792;8.320;2022-08-01T06:33:21;20.67;;;17.60;;
17812;SDS011;9030;50.792;8.320;2022-08-01T06:35:47;17.95;;;15.23;;
17812;SDS011;9030;50.792;8.320;2022-08-01T06:38:14;17.55;;;15.50;;
17812;SDS011;9030;50.792;8.320;2022-08-01T06:40:41;18.13;;;16.23;;
17812;SDS011;9030;50.792;8.320;2022-08-01T06:43:08;17.75;;;15.77;;
17812;SDS011;9030;50.792;8.320;2022-08-01T06:45:36;20.00;;;16.30;;
17812;SDS011;9030;50.792;8.320;2022-08-01T06:48:04;18.98;;;17.15;;
17812;SDS011;9030;50.792;8.320;2022-08-01T06:50:31;18.95;;;16.98;;
17812;SDS011;9030;50.792;8.320;2022-08-01T06:53:00;23.08;;;20.75;;
17812;SDS011;9030;50.792;8.320;2022-08-01T06:55:27;16.90;;;15.20;;
17812;SDS011;9030;50.792;8.320;2022-08-01T06:57:54;19.90;;;17.80;;
17812;SDS011;9030;50.792;8.320;2022-08-01T07:00:21;23.15;;;20.95;;
17812;SDS011;9030;50.792;8.320;2022-08-01T07:02:49;20.55;;;17.20;;
17812;SDS011;9030;50.792;8.320;2022-08-01T07:05:17;19.48;;;17.50;;
17812;SDS011;9030;50.792;8.320;2022-08-01T07:07:44;20.55;;;15.57;;
17812;SDS011;9030;50.792;8.320;2022-08-01T07:10:11;19.58;;;17.55;;
17812;SDS011;9030;50.792;8.320;2022-08-01T07:12:38;19.98;;;17.95;;
17812;SDS011;9030;50.792;8.320;2022-08-01T07:15:06;17.98;;;16.27;;
17812;SDS011;9030;50.792;8.320;2022-08-01T07:17:36;17.13;;;15.40;;
17812;SDS011;9030;50.792;8.320;2022-08-01T07:20:03;17.55;;;13.88;;
17812;SDS011;9030;50.792;8.320;2022-08-01T07:22:33;20.70;;;15.15;;
17812;SDS011;9030;50.792;8.320;2022-08-01T07:24:59;18.02;;;14.50;;
17812;SDS011;9030;50.792;8.320;2022-08-01T07:27:26;16.35;;;14.60;;
17812;SDS011;9030;50.792;8.320;2022-08-01T07:29:53;17.02;;;15.40;;
17812;SDS011;9030;50.792;8.320;2022-08-01T07:32:19;17.98;;;14.18;;
17812;SDS011;9030;50.792;8.320;2022-08-01T07:34:47;14.02;;;12.60;;
17812;SDS011;9030;50.792;8.320;2022-08-01T07:37:14;15.43;;;13.65;;
17812;SDS011;9030;50.792;8.320;2022-08-01T07:39:42;16.38;;;13.35;;
17812;SDS011;9030;50.792;8.320;2022-08-01T07:42:09;14.48;;;12.98;;
17812;SDS011;9030;50.792;8.320;2022-08-01T07:44:35;17.25;;;12.80;;
17812;SDS011;9030;50.792;8.320;2022-08-01T07:47:03;15.98;;;14.35;;
17812;SDS011;9030;50.792;8.320;2022-08-01T07:49:30;15.02;;;12.63;;
17812;SDS011;9030;50.792;8.320;2022-08-01T07:51:57;15.80;;;11.82;;
17812;SDS011;9030;50.792;8.320;2022-08-01T07:54:24;16.88;;;11.75;;
17812;SDS011;9030;50.792;8.320;2022-08-01T07:56:54;14.40;;;12.10;;
17812;SDS011;9030;50.792;8.320;2022-08-01T07:59:21;14.60;;;12.27;;
17812;SDS011;9030;50.792;8.320;2022-08-01T08:01:48;13.10;;;11.70;;
17812;SDS011;9030;50.792;8.320;2022-08-01T08:04:15;14.02;;;11.77;;
17812;SDS011;9030;50.792;8.320;2022-08-01T08:06:42;14.70;;;12.48;;
17812;SDS011;9030;50.792;8.320;2022-08-01T08:09:09;15.55;;;12.43;;
17812;SDS011;9030;50.792;8.320;2022-08-01T08:11:37;14.80;;;11.00;;
17812;SDS011;9030;50.792;8.320;2022-08-01T08:14:05;14.63;;;10.85;;
17812;SDS011;9030;50.792;8.320;2022-08-01T08:16:31;15.43;;;12.02;;
17812;SDS011;9030;50.792;8.320;2022-08-01T08:18:58;15.25;;;11.25;;
17812;SDS011;9030;50.792;8.320;2022-08-01T08:21:25;11.70;;;9.00;;
17812;SDS011;9030;50.792;8.320;2022-08-01T08:23:52;14.65;;;10.48;;
17812;SDS011;9030;50.792;8.320;2022-08-01T08:26:37;12.52;;;10.15;;
17812;SDS011;9030;50.792;8.320;2022-08-01T08:29:05;14.07;;;9.32;;
17812;SDS011;9030;50.792;8.320;2022-08-01T08:31:32;13.30;;;9.68;;
17812;SDS011;9030;50.792;8.320;2022-08-01T08:33:59;12.85;;;9.27;;
17812;SDS011;9030;50.792;8.320;2022-08-01T08:36:25;13.68;;;10.40;;
17812;SDS011;9030;50.792;8.320;2022-08-01T08:38:52;14.18;;;9.75;;
17812;SDS011;9030;50.792;8.320;2022-08-01T08:41:19;14.65;;;10.25;;
17812;SDS011;9030;50.792;8.320;2022-08-01T08:43:47;13.93;;;8.98;;
17812;SDS011;9030;50.792;8.320;2022-08-01T08:46:15;12.35;;;8.35;;
17812;SDS011;9030;50.792;8.320;2022-08-01T08:48:42;11.32;;;8.77;;
17812;SDS011;9030;50.792;8.320;2022-08-01T08:51:10;12.18;;;9.20;;
17812;SDS011;9030;50.792;8.320;2022-08-01T08:53:38;12.32;;;8.15;;
17812;SDS011;9030;50.792;8.320;2022-08-01T08:56:08;10.00;;;6.95;;
17812;SDS011;9030;50.792;8.320;2022-08-01T08:58:37;10.50;;;7.22;;
17812;SDS011;9030;50.792;8.320;2022-08-01T09:01:04;13.82;;;8.63;;
17812;SDS011;9030;50.792;8.320;2022-08-01T09:03:33;11.70;;;8.27;;
17812;SDS011;9030;50.792;8.320;2022-08-01T09:06:00;11.75;;;8.57;;
17812;SDS011;9030;50.792;8.320;2022-08-01T09:08:26;9.40;;;7.50;;
17812;SDS011;9030;50.792;8.320;2022-08-01T09:10:53;9.73;;;7.40;;
17812;SDS011;9030;50.792;8.320;2022-08-01T09:13:20;12.65;;;7.07;;
17812;SDS011;9030;50.792;8.320;2022-08-01T09:15:48;8.65;;;6.03;;
17812;SDS011;9030;50.792;8.320;2022-08-01T09:18:25;12.35;;;6.28;;
17812;SDS011;9030;50.792;8.320;2022-08-01T09:21:08;8.55;;;6.00;;
17812;SDS011;9030;50.792;8.320;2022-08-01T09:23:37;10.20;;;6.90;;
17812;SDS011;9030;50.792;8.320;2022-08-01T09:26:07;9.13;;;7.20;;
17812;SDS011;9030;50.792;8.320;2022-08-01T09:28:35;10.23;;;7.00;;
17812;SDS011;9030;50.792;8.320;2022-08-01T09:31:06;10.65;;;6.70;;
17812;SDS011;9030;50.792;8.320;2022-08-01T09:33:48;12.05;;;9.20;;
17812;SDS011;9030;50.792;8.320;2022-08-01T09:36:17;12.02;;;8.43;;
17812;SDS011;9030;50.792;8.320;2022-08-01T09:38:45;19.05;;;8.43;;
17812;SDS011;9030;50.792;8.320;2022-08-01T09:41:12;12.10;;;8.38;;
17812;SDS011;9030;50.792;8.320;2022-08-01T09:43:39;13.15;;;8.63;;
17812;SDS011;9030;50.792;8.320;2022-08-01T09:46:08;10.13;;;6.95;;
17812;SDS011;9030;50.792;8.320;2022-08-01T09:48:37;10.43;;;7.25;;
17812;SDS011;9030;50.792;8.320;2022-08-01T09:51:05;9.38;;;6.57;;
17812;SDS011;9030;50.792;8.320;2022-08-01T09:53:44;10.13;;;6.15;;
17812;SDS011;9030;50.792;8.320;2022-08-01T09:56:13;9.25;;;6.68;;
17812;SDS011;9030;50.792;8.320;2022-08-01T09:58:49;11.95;;;7.35;;
17812;SDS011;9030;50.792;8.320;2022-08-01T10:01:18;9.73;;;6.53;;
17812;SDS011;9030;50.792;8.320;2022-08-01T10:03:46;11.02;;;8.02;;
17812;SDS011;9030;50.792;8.320;2022-08-01T10:06:29;9.55;;;7.65;;
17812;SDS011;9030;50.792;8.320;2022-08-01T10:08:57;7.70;;;6.30;;
17812;SDS011;9030;50.792;8.320;2022-08-01T10:11:24;9.00;;;7.32;;
17812;SDS011;9030;50.792;8.320;2022-08-01T10:13:51;9.48;;;7.28;;
17812;SDS011;9030;50.792;8.320;2022-08-01T10:16:18;8.15;;;5.88;;
17812;SDS011;9030;50.792;8.320;2022-08-01T10:18:45;7.38;;;4.68;;
17812;SDS011;9030;50.792;8.320;2022-08-01T10:21:13;8.10;;;5.63;;
17812;SDS011;9030;50.792;8.320;2022-08-01T10:23:40;9.00;;;6.35;;
17812;SDS011;9030;50.792;8.320;2022-08-01T10:26:09;11.52;;;6.57;;
17812;SDS011;9030;50.792;8.320;2022-08-01T10:28:37;9.15;;;6.47;;
17812;SDS011;9030;50.792;8.320;2022-08-01T10:31:04;7.72;;;6.07;;
17812;SDS011;9030;50.792;8.320;2022-08-01T10:33:33;7.80;;;5.50;;
17812;SDS011;9030;50.792;8.320;2022-08-01T10:36:01;9.25;;;6.68;;
17812;SDS011;9030;50.792;8.320;2022-08-01T10:38:28;9.25;;;6.78;;
17812;SDS011;9030;50.792;8.320;2022-08-01T10:40:55;9.38;;;6.35;;
17812;SDS011;9030;50.792;8.320;2022-08-01T10:43:24;6.85;;;5.28;;
17812;SDS011;9030;50.792;8.320;2022-08-01T10:45:51;8.88;;;5.38;;
17812;SDS011;9030;50.792;8.320;2022-08-01T10:48:19;9.65;;;5.75;;
17812;SDS011;9030;50.792;8.320;2022-08-01T10:50:51;7.38;;;4.80;;
17812;SDS011;9030;50.792;8.320;2022-08-01T10:53:20;5.50;;;4.22;;
17812;SDS011;9030;50.792;8.320;2022-08-01T10:55:50;8.70;;;5.13;;
17812;SDS011;9030;50.792;8.320;2022-08-01T10:58:22;6.65;;;4.93;;
17812;SDS011;9030;50.792;8.320;2022-08-01T11:04:01;6.75;;;4.75;;
17812;SDS011;9030;50.792;8.320;2022-08-01T11:06:36;5.43;;;4.18;;
17812;SDS011;9030;50.792;8.320;2022-08-01T11:12:06;7.68;;;5.25;;
17812;SDS011;9030;50.792;8.320;2022-08-01T11:15:16;7.47;;;5.85;;
17812;SDS011;9030;50.792;8.320;2022-08-01T11:17:49;7.68;;;5.55;;
17812;SDS011;9030;50.792;8.320;2022-08-01T11:20:19;8.35;;;6.38;;
17812;SDS011;9030;50.792;8.320;2022-08-01T11:28:34;9.48;;;6.20;;
17812;SDS011;9030;50.792;8.320;2022-08-01T11:33:53;7.80;;;5.40;;
17812;SDS011;9030;50.792;8.320;2022-08-01T11:36:21;4.85;;;4.35;;
17812;SDS011;9030;50.792;8.320;2022-08-01T11:38:49;7.40;;;4.70;;
17812;SDS011;9030;50.792;8.320;2022-08-01T11:41:32;5.57;;;4.15;;
17812;SDS011;9030;50.792;8.320;2022-08-01T11:44:01;6.32;;;4.80;;
17812;SDS011;9030;50.792;8.320;2022-08-01T11:46:48;4.75;;;3.22;;
17812;SDS011;9030;50.792;8.320;2022-08-01T11:49:30;3.72;;;2.60;;
17812;SDS011;9030;50.792;8.320;2022-08-01T11:52:02;6.22;;;3.08;;
17812;SDS011;9030;50.792;8.320;2022-08-01T11:54:32;7.57;;;3.75;;
17812;SDS011;9030;50.792;8.320;2022-08-01T11:57:01;5.22;;;3.60;;
17812;SDS011;9030;50.792;8.320;2022-08-01T11:59:35;7.82;;;3.72;;
17812;SDS011;9030;50.792;8.320;2022-08-01T12:02:03;4.68;;;3.13;;
17812;SDS011;9030;50.792;8.320;2022-08-01T12:04:50;4.38;;;3.10;;
17812;SDS011;9030;50.792;8.320;2022-08-01T12:07:20;7.25;;;2.92;;
17812;SDS011;9030;50.792;8.320;2022-08-01T12:09:56;5.03;;;3.10;;
17812;SDS011;9030;50.792;8.320;2022-08-01T12:12:25;4.85;;;3.33;;
17812;SDS011;9030;50.792;8.320;2022-08-01T12:14:53;6.25;;;2.67;;
17812;SDS011;9030;50.792;8.320;2022-08-01T12:17:27;3.90;;;3.35;;
17812;SDS011;9030;50.792;8.320;2022-08-01T12:19:55;3.60;;;2.72;;
17812;SDS011;9030;50.792;8.320;2022-08-01T12:22:23;4.35;;;2.58;;
17812;SDS011;9030;50.792;8.320;2022-08-01T12:24:51;4.72;;;2.17;;
17812;SDS011;9030;50.792;8.320;2022-08-01T12:27:25;3.63;;;2.53;;
17812;SDS011;9030;50.792;8.320;2022-08-01T12:29:53;4.60;;;3.05;;
17812;SDS011;9030;50.792;8.320;2022-08-01T12:32:21;4.05;;;2.47;;
17812;SDS011;9030;50.792;8.320;2022-08-01T12:34:50;4.38;;;2.80;;
17812;SDS011;9030;50.792;8.320;2022-08-01T12:37:17;2.80;;;2.22;;
17812;SDS011;9030;50.792;8.320;2022-08-01T12:39:46;3.47;;;2.65;;
17812;SDS011;9030;50.792;8.320;2022-08-01T12:42:12;4.82;;;2.63;;
17812;SDS011;9030;50.792;8.320;2022-08-01T12:44:40;2.97;;;2.38;;
17812;SDS011;9030;50.792;8.320;2022-08-01T12:47:10;5.07;;;2.63;;
17812;SDS011;9030;50.792;8.320;2022-08-01T12:49:38;3.78;;;2.45;;
17812;SDS011;9030;50.792;8.320;2022-08-01T12:52:07;8.35;;;2.70;;
17812;SDS011;9030;50.792;8.320;2022-08-01T12:57:34;3.85;;;2.58;;
17812;SDS011;9030;50.792;8.320;2022-08-01T13:00:05;3.75;;;2.30;;
17812;SDS011;9030;50.792;8.320;2022-08-01T13:02:35;4.00;;;2.95;;
17812;SDS011;9030;50.792;8.320;2022-08-01T13:05:02;3.03;;;2.63;;
17812;SDS011;9030;50.792;8.320;2022-08-01T13:07:36;4.55;;;2.78;;
17812;SDS011;9030;50.792;8.320;2022-08-01T13:10:05;3.75;;;2.85;;
17812;SDS011;9030;50.792;8.320;2022-08-01T13:12:34;4.90;;;2.90;;
17812;SDS011;9030;50.792;8.320;2022-08-01T13:15:15;3.70;;;2.95;;
17812;SDS011;9030;50.792;8.320;2022-08-01T13:17:43;5.95;;;3.03;;
17812;SDS011;9030;50.792;8.320;2022-08-01T13:20:09;4.05;;;2.75;;
17812;SDS011;9030;50.792;8.320;2022-08-01T13:22:46;5.35;;;2.55;;
17812;SDS011;9030;50.792;8.320;2022-08-01T13:25:15;3.83;;;2.65;;
17812;SDS011;9030;50.792;8.320;2022-08-01T13:27:42;5.63;;;2.92;;
17812;SDS011;9030;50.792;8.320;2022-08-01T13:30:10;3.33;;;2.35;;
17812;SDS011;9030;50.792;8.320;2022-08-01T13:32:38;4.95;;;2.75;;
17812;SDS011;9030;50.792;8.320;2022-08-01T13:35:06;3.10;;;2.60;;
17812;SDS011;9030;50.792;8.320;2022-08-01T13:37:34;3.03;;;2.28;;
17812;SDS011;9030;50.792;8.320;2022-08-01T13:40:01;5.75;;;2.75;;
17812;SDS011;9030;50.792;8.320;2022-08-01T13:42:29;4.38;;;2.40;;
17812;SDS011;9030;50.792;8.320;2022-08-01T13:44:56;3.30;;;2.67;;
17812;SDS011;9030;50.792;8.320;2022-08-01T13:47:23;3.33;;;2.00;;
17812;SDS011;9030;50.792;8.320;2022-08-01T13:49:50;3.88;;;2.40;;
17812;SDS011;9030;50.792;8.320;2022-08-01T13:52:18;6.65;;;2.55;;
17812;SDS011;9030;50.792;8.320;2022-08-01T13:54:44;8.40;;;2.65;;
17812;SDS011;9030;50.792;8.320;2022-08-01T13:57:11;3.10;;;2.55;;
17812;SDS011;9030;50.792;8.320;2022-08-01T13:59:40;4.53;;;2.75;;
17812;SDS011;9030;50.792;8.320;2022-08-01T14:02:07;4.22;;;2.38;;
17812;SDS011;9030;50.792;8.320;2022-08-01T14:04:34;5.45;;;3.05;;
17812;SDS011;9030;50.792;8.320;2022-08-01T14:07:00;3.65;;;2.13;;
17812;SDS011;9030;50.792;8.320;2022-08-01T14:09:27;3.05;;;2.25;;
17812;SDS011;9030;50.792;8.320;2022-08-01T14:11:54;6.32;;;2.67;;
17812;SDS011;9030;50.792;8.320;2022-08-01T14:14:20;6.03;;;2.97;;
17812;SDS011;9030;50.792;8.320;2022-08-01T14:16:48;3.70;;;2.90;;
17812;SDS011;9030;50.792;8.320;2022-08-01T14:19:15;4.20;;;3.17;;
17812;SDS011;9030;50.792;8.320;2022-08-01T14:21:42;4.25;;;3.15;;
17812;SDS011;9030;50.792;8.320;2022-08-01T14:24:09;3.85;;;2.50;;
17812;SDS011;9030;50.792;8.320;2022-08-01T14:26:36;5.78;;;4.13;;
17812;SDS011;9030;50.792;8.320;2022-08-01T14:29:03;4.90;;;3.78;;
17812;SDS011;9030;50.792;8.320;2022-08-01T14:31:29;5.43;;;3.65;;
17812;SDS011;9030;50.792;8.320;2022-08-01T14:33:58;5.78;;;3.30;;
17812;SDS011;9030;50.792;8.320;2022-08-01T14:36:24;4.85;;;3.17;;
17812;SDS011;9030;50.792;8.320;2022-08-01T14:38:51;6.75;;;3.95;;
17812;SDS011;9030;50.792;8.320;2022-08-01T14:41:18;5.55;;;3.63;;
17812;SDS011;9030;50.792;8.320;2022-08-01T14:43:44;4.85;;;2.90;;
17812;SDS011;9030;50.792;8.320;2022-08-01T14:46:11;7.95;;;3.05;;
17812;SDS011;9030;50.792;8.320;2022-08-01T14:48:38;7.47;;;2.70;;
17812;SDS011;9030;50.792;8.320;2022-08-01T14:51:06;3.25;;;2.50;;
17812;SDS011;9030;50.792;8.320;2022-08-01T14:53:33;5.50;;;3.38;;
17812;SDS011;9030;50.792;8.320;2022-08-01T14:56:01;5.70;;;3.25;;
17812;SDS011;9030;50.792;8.320;2022-08-01T14:58:28;3.97;;;2.63;;
17812;SDS011;9030;50.792;8.320;2022-08-01T15:00:55;4.07;;;2.63;;
17812;SDS011;9030;50.792;8.320;2022-08-01T15:03:22;4.03;;;2.72;;
17812;SDS011;9030;50.792;8.320;2022-08-01T15:05:48;3.10;;;2.15;;
17812;SDS011;9030;50.792;8.320;2022-08-01T15:08:16;5.78;;;2.35;;
17812;SDS011;9030;50.792;8.320;2022-08-01T15:10:43;4.10;;;2.45;;
17812;SDS011;9030;50.792;8.320;2022-08-01T15:13:10;4.25;;;2.42;;